Detall de PIREP

Printer-friendly versionPDF version

[2016/01/04 11:45:00]
Flight IATA:CT1004
Pilot Number:012
Company ICAO:CAT
Aircraft Type:B738/F
PAX:160
Departing Airport: LEVC
Destination Airport: LFBO
Alternate Airport:LFMP
Online: VATSIM
Route:SOPET UN608 GIROM UN863 ASPET
Flight Level:F300
No Slew and time accel
No pause
Crash detect
Detect pilot in Cockpit between each 30 and 45 minutes
11:45 Zero fuel Weight: 128148 Lbs, Fuel Weight: 13807 Lbs
11:45 VATSIM:LEVC 041130Z 27021G33KT 230V290 9999 BKN045 22/10 Q1004 NOSIG
11:45 VATSIM:LFBO 041130Z AUTO 24010KT CAVOK 12/07 Q1001
11:45 X-MAS CHARTER
11:54 Parking Brakes off
11:57 Take-off
11:57 Take off Weight: 141399 Lbs
11:57 Wind: 261º @ 027 Knots Heading: 289º
11:57 POS N39º 29´ 24´´ W000º 29´ 04´´
11:57 Gear Up: 167 Knots
11:57 Flaps:3 at 167 Knots
11:58 Flaps:2 at 176 Knots
11:58 Flaps:1 at 187 Knots
11:58 Flaps:0 at 200 Knots
12:12 Wind:283º@105 KnotsHeading: 003º Ground Speed: 465 Knots Altitude 29291 ft
12:27 Wind:274º@095 Knots Heading: 358º Ground Speed: 415 Knots Altitude 23061 ft
12:36 Flaps:1 at 228 Knots
12:37 Flaps:2 at 220 Knots
12:39 Flaps:3 at 211 Knots
12:40 Flaps:4 at 187 Knots
12:40 Flaps:5 at 170 Knots
12:40 Gear Down: 168 Knots
12:41 Flaps:6 at 141 Knots
12:41 Flaps:7 at 135 Knots
12:41 Flaps:8 at 141 Knots
12:42 Wind:248º@009 Knots Heading: 311º Ground Speed: 140 Knots Altitude 3179 ft
12:45 TouchDown:Rate -228 ft/min Speed: 131 Knots
12:46 VATSIM:LFBO 041230Z AUTO 24010KT CAVOK 11/07 Q1001
12:46 Land
12:46 Wind:250º@010 Knots
12:46 Heading: 321º
12:46 Flight Duration: 00:49
12:46 Landing Weight: 135727 Lbs
12:46 POS N43º 37´ 44´´ E001º 21´ 40´´
12:51 Parking brakes on
12:51 Block to Block Duration: 00:57
12:51 Final Fuel: 7140 Lbls
12:51 Spent Fuel: 6666 Lbls
12:51 Flight Length: 288 NM
12:51 TOD Land Length: 288 NM

Exportar CSV

Powered by Drupal - Modified by Danger4k